sensor_id;sensor_type;location;lat;lon;timestamp;P1;durP1;ratioP1;P2;durP2;ratioP2
51981;SDS011;37998;53.416;6.730;2022-11-06T00:02:00;10.25;;;5.53;;
51981;SDS011;37998;53.416;6.730;2022-11-06T00:04:29;12.43;;;6.13;;
51981;SDS011;37998;53.416;6.730;2022-11-06T00:06:54;13.50;;;5.35;;
51981;SDS011;37998;53.416;6.730;2022-11-06T00:09:20;9.25;;;5.85;;
51981;SDS011;37998;53.416;6.730;2022-11-06T00:11:46;12.63;;;5.93;;
51981;SDS011;37998;53.416;6.730;2022-11-06T00:14:13;9.18;;;5.60;;
51981;SDS011;37998;53.416;6.730;2022-11-06T00:16:39;9.02;;;5.60;;
51981;SDS011;37998;53.416;6.730;2022-11-06T00:19:06;10.02;;;5.90;;
51981;SDS011;37998;53.416;6.730;2022-11-06T00:21:32;11.40;;;5.30;;
51981;SDS011;37998;53.416;6.730;2022-11-06T00:23:59;10.85;;;7.07;;
51981;SDS011;37998;53.416;6.730;2022-11-06T00:26:27;8.75;;;5.95;;
51981;SDS011;37998;53.416;6.730;2022-11-06T00:28:54;8.00;;;5.78;;
51981;SDS011;37998;53.416;6.730;2022-11-06T00:31:21;12.25;;;6.70;;
51981;SDS011;37998;53.416;6.730;2022-11-06T00:33:49;15.02;;;6.88;;
51981;SDS011;37998;53.416;6.730;2022-11-06T00:36:16;8.68;;;6.63;;
51981;SDS011;37998;53.416;6.730;2022-11-06T00:38:44;10.80;;;6.65;;
51981;SDS011;37998;53.416;6.730;2022-11-06T00:41:13;9.25;;;6.68;;
51981;SDS011;37998;53.416;6.730;2022-11-06T00:43:40;10.77;;;6.72;;
51981;SDS011;37998;53.416;6.730;2022-11-06T00:46:10;13.43;;;8.30;;
51981;SDS011;37998;53.416;6.730;2022-11-06T00:48:38;11.77;;;6.75;;
51981;SDS011;37998;53.416;6.730;2022-11-06T00:51:12;15.30;;;8.02;;
51981;SDS011;37998;53.416;6.730;2022-11-06T00:53:39;13.82;;;7.68;;
51981;SDS011;37998;53.416;6.730;2022-11-06T00:56:09;9.02;;;6.90;;
51981;SDS011;37998;53.416;6.730;2022-11-06T00:58:40;14.07;;;8.48;;
51981;SDS011;37998;53.416;6.730;2022-11-06T01:01:14;13.45;;;7.75;;
51981;SDS011;37998;53.416;6.730;2022-11-06T01:03:42;13.75;;;9.02;;
51981;SDS011;37998;53.416;6.730;2022-11-06T01:06:10;13.95;;;8.85;;
51981;SDS011;37998;53.416;6.730;2022-11-06T01:08:37;14.85;;;9.02;;
51981;SDS011;37998;53.416;6.730;2022-11-06T01:11:04;12.77;;;8.95;;
51981;SDS011;37998;53.416;6.730;2022-11-06T01:13:30;16.08;;;8.80;;
51981;SDS011;37998;53.416;6.730;2022-11-06T01:15:56;15.43;;;7.72;;
51981;SDS011;37998;53.416;6.730;2022-11-06T01:18:22;15.18;;;8.82;;
51981;SDS011;37998;53.416;6.730;2022-11-06T01:20:47;13.07;;;8.10;;
51981;SDS011;37998;53.416;6.730;2022-11-06T01:23:13;14.50;;;9.20;;
51981;SDS011;37998;53.416;6.730;2022-11-06T01:25:38;13.63;;;10.38;;
51981;SDS011;37998;53.416;6.730;2022-11-06T01:28:04;12.18;;;8.68;;
51981;SDS011;37998;53.416;6.730;2022-11-06T01:30:30;15.93;;;8.60;;
51981;SDS011;37998;53.416;6.730;2022-11-06T01:32:55;12.75;;;8.77;;
51981;SDS011;37998;53.416;6.730;2022-11-06T01:35:21;12.85;;;9.13;;
51981;SDS011;37998;53.416;6.730;2022-11-06T01:37:47;13.02;;;8.52;;
51981;SDS011;37998;53.416;6.730;2022-11-06T01:40:12;17.63;;;9.23;;
51981;SDS011;37998;53.416;6.730;2022-11-06T01:42:38;14.05;;;8.93;;
51981;SDS011;37998;53.416;6.730;2022-11-06T01:47:38;16.65;;;10.02;;
51981;SDS011;37998;53.416;6.730;2022-11-06T01:50:05;19.33;;;9.05;;
51981;SDS011;37998;53.416;6.730;2022-11-06T01:52:34;12.30;;;8.68;;
51981;SDS011;37998;53.416;6.730;2022-11-06T01:55:06;14.25;;;9.68;;
51981;SDS011;37998;53.416;6.730;2022-11-06T01:57:42;15.15;;;9.10;;
51981;SDS011;37998;53.416;6.730;2022-11-06T02:00:08;12.07;;;8.90;;
51981;SDS011;37998;53.416;6.730;2022-11-06T02:02:34;18.38;;;9.05;;
51981;SDS011;37998;53.416;6.730;2022-11-06T02:05:01;15.75;;;9.38;;
51981;SDS011;37998;53.416;6.730;2022-11-06T02:07:27;13.10;;;9.38;;
51981;SDS011;37998;53.416;6.730;2022-11-06T02:09:53;15.32;;;9.38;;
51981;SDS011;37998;53.416;6.730;2022-11-06T02:21:15;14.77;;;9.93;;
51981;SDS011;37998;53.416;6.730;2022-11-06T02:27:13;13.23;;;9.23;;
51981;SDS011;37998;53.416;6.730;2022-11-06T02:32:29;16.00;;;10.45;;
51981;SDS011;37998;53.416;6.730;2022-11-06T02:35:09;16.08;;;9.60;;
51981;SDS011;37998;53.416;6.730;2022-11-06T02:37:47;15.00;;;10.00;;
51981;SDS011;37998;53.416;6.730;2022-11-06T02:40:17;12.40;;;9.57;;
51981;SDS011;37998;53.416;6.730;2022-11-06T02:42:46;12.00;;;9.27;;
51981;SDS011;37998;53.416;6.730;2022-11-06T02:45:14;15.45;;;9.30;;
51981;SDS011;37998;53.416;6.730;2022-11-06T02:47:43;18.33;;;9.70;;
51981;SDS011;37998;53.416;6.730;2022-11-06T02:50:17;13.48;;;8.95;;
51981;SDS011;37998;53.416;6.730;2022-11-06T02:53:12;14.20;;;9.43;;
51981;SDS011;37998;53.416;6.730;2022-11-06T02:56:25;13.57;;;9.63;;
51981;SDS011;37998;53.416;6.730;2022-11-06T02:58:38;10.98;;;9.07;;
51981;SDS011;37998;53.416;6.730;2022-11-06T03:01:32;13.50;;;9.43;;
51981;SDS011;37998;53.416;6.730;2022-11-06T03:04:07;11.13;;;8.35;;
51981;SDS011;37998;53.416;6.730;2022-11-06T03:07:02;11.65;;;8.38;;
51981;SDS011;37998;53.416;6.730;2022-11-06T03:09:38;12.23;;;9.40;;
51981;SDS011;37998;53.416;6.730;2022-11-06T03:12:10;11.25;;;9.23;;
51981;SDS011;37998;53.416;6.730;2022-11-06T03:14:53;12.63;;;9.52;;
51981;SDS011;37998;53.416;6.730;2022-11-06T03:20:08;12.75;;;9.25;;
51981;SDS011;37998;53.416;6.730;2022-11-06T03:22:55;12.43;;;9.25;;
51981;SDS011;37998;53.416;6.730;2022-11-06T03:25:28;13.95;;;9.25;;
51981;SDS011;37998;53.416;6.730;2022-11-06T03:28:07;11.80;;;9.52;;
51981;SDS011;37998;53.416;6.730;2022-11-06T03:35:56;12.00;;;9.85;;
51981;SDS011;37998;53.416;6.730;2022-11-06T03:38:29;15.10;;;9.77;;
51981;SDS011;37998;53.416;6.730;2022-11-06T03:40:59;13.65;;;10.10;;
51981;SDS011;37998;53.416;6.730;2022-11-06T03:43:29;12.15;;;9.82;;
51981;SDS011;37998;53.416;6.730;2022-11-06T03:45:59;11.20;;;9.90;;
51981;SDS011;37998;53.416;6.730;2022-11-06T03:48:35;12.77;;;9.75;;
51981;SDS011;37998;53.416;6.730;2022-11-06T03:54:22;12.57;;;9.80;;
51981;SDS011;37998;53.416;6.730;2022-11-06T03:57:03;12.80;;;8.48;;
51981;SDS011;37998;53.416;6.730;2022-11-06T03:59:48;14.93;;;9.38;;
51981;SDS011;37998;53.416;6.730;2022-11-06T04:02:16;12.50;;;9.63;;
51981;SDS011;37998;53.416;6.730;2022-11-06T04:05:19;10.82;;;8.85;;
51981;SDS011;37998;53.416;6.730;2022-11-06T04:07:59;13.95;;;9.27;;
51981;SDS011;37998;53.416;6.730;2022-11-06T04:10:44;15.70;;;9.25;;
51981;SDS011;37998;53.416;6.730;2022-11-06T04:13:33;13.32;;;9.75;;
51981;SDS011;37998;53.416;6.730;2022-11-06T04:16:19;14.43;;;9.48;;
51981;SDS011;37998;53.416;6.730;2022-11-06T04:18:45;14.43;;;9.73;;
51981;SDS011;37998;53.416;6.730;2022-11-06T04:27:18;15.57;;;9.55;;
51981;SDS011;37998;53.416;6.730;2022-11-06T04:30:06;12.75;;;9.65;;
51981;SDS011;37998;53.416;6.730;2022-11-06T04:35:28;11.55;;;9.55;;
51981;SDS011;37998;53.416;6.730;2022-11-06T04:41:10;14.35;;;9.38;;
51981;SDS011;37998;53.416;6.730;2022-11-06T04:43:47;15.77;;;9.05;;
51981;SDS011;37998;53.416;6.730;2022-11-06T04:46:24;16.23;;;9.85;;
51981;SDS011;37998;53.416;6.730;2022-11-06T04:48:53;15.05;;;10.13;;
51981;SDS011;37998;53.416;6.730;2022-11-06T04:51:21;14.52;;;9.75;;
51981;SDS011;37998;53.416;6.730;2022-11-06T04:53:50;11.35;;;9.32;;
51981;SDS011;37998;53.416;6.730;2022-11-06T04:56:22;15.77;;;9.88;;
51981;SDS011;37998;53.416;6.730;2022-11-06T04:58:52;12.80;;;9.85;;
51981;SDS011;37998;53.416;6.730;2022-11-06T05:01:18;13.38;;;10.13;;
51981;SDS011;37998;53.416;6.730;2022-11-06T05:03:43;14.80;;;10.10;;
51981;SDS011;37998;53.416;6.730;2022-11-06T05:06:09;11.30;;;9.25;;
51981;SDS011;37998;53.416;6.730;2022-11-06T05:08:35;14.85;;;9.40;;
51981;SDS011;37998;53.416;6.730;2022-11-06T05:11:01;16.25;;;9.32;;
51981;SDS011;37998;53.416;6.730;2022-11-06T05:13:26;14.05;;;9.77;;
51981;SDS011;37998;53.416;6.730;2022-11-06T05:15:55;11.88;;;9.50;;
51981;SDS011;37998;53.416;6.730;2022-11-06T05:18:22;11.35;;;8.88;;
51981;SDS011;37998;53.416;6.730;2022-11-06T05:20:48;12.63;;;9.05;;
51981;SDS011;37998;53.416;6.730;2022-11-06T05:23:33;14.95;;;9.60;;
51981;SDS011;37998;53.416;6.730;2022-11-06T05:25:59;18.40;;;10.13;;
51981;SDS011;37998;53.416;6.730;2022-11-06T05:28:25;13.05;;;9.52;;
51981;SDS011;37998;53.416;6.730;2022-11-06T05:30:50;13.20;;;8.48;;
51981;SDS011;37998;53.416;6.730;2022-11-06T05:33:16;13.60;;;9.27;;
51981;SDS011;37998;53.416;6.730;2022-11-06T05:35:42;11.80;;;8.70;;
51981;SDS011;37998;53.416;6.730;2022-11-06T05:38:07;12.50;;;8.60;;
51981;SDS011;37998;53.416;6.730;2022-11-06T05:40:33;13.93;;;9.20;;
51981;SDS011;37998;53.416;6.730;2022-11-06T05:42:58;14.32;;;7.95;;
51981;SDS011;37998;53.416;6.730;2022-11-06T05:45:24;13.68;;;9.07;;
51981;SDS011;37998;53.416;6.730;2022-11-06T05:47:50;15.75;;;8.80;;
51981;SDS011;37998;53.416;6.730;2022-11-06T05:50:15;14.43;;;9.00;;
51981;SDS011;37998;53.416;6.730;2022-11-06T05:52:41;13.48;;;8.52;;
51981;SDS011;37998;53.416;6.730;2022-11-06T05:55:07;18.10;;;8.32;;
51981;SDS011;37998;53.416;6.730;2022-11-06T05:57:33;11.32;;;8.20;;
51981;SDS011;37998;53.416;6.730;2022-11-06T05:59:58;14.35;;;8.13;;
51981;SDS011;37998;53.416;6.730;2022-11-06T06:02:24;13.60;;;8.35;;
51981;SDS011;37998;53.416;6.730;2022-11-06T06:04:50;11.48;;;7.78;;
51981;SDS011;37998;53.416;6.730;2022-11-06T06:07:15;12.60;;;8.57;;
51981;SDS011;37998;53.416;6.730;2022-11-06T06:09:41;10.45;;;7.65;;
51981;SDS011;37998;53.416;6.730;2022-11-06T06:12:08;15.25;;;7.47;;
51981;SDS011;37998;53.416;6.730;2022-11-06T06:14:36;13.90;;;7.85;;
51981;SDS011;37998;53.416;6.730;2022-11-06T06:17:01;12.00;;;7.72;;
51981;SDS011;37998;53.416;6.730;2022-11-06T06:19:27;16.90;;;7.28;;
51981;SDS011;37998;53.416;6.730;2022-11-06T06:21:52;12.35;;;7.82;;
51981;SDS011;37998;53.416;6.730;2022-11-06T06:24:18;8.95;;;6.80;;
51981;SDS011;37998;53.416;6.730;2022-11-06T06:26:44;11.85;;;7.10;;
51981;SDS011;37998;53.416;6.730;2022-11-06T06:29:09;13.50;;;8.02;;
51981;SDS011;37998;53.416;6.730;2022-11-06T06:31:35;8.65;;;7.03;;
51981;SDS011;37998;53.416;6.730;2022-11-06T06:34:01;13.90;;;7.38;;
51981;SDS011;37998;53.416;6.730;2022-11-06T06:36:26;19.23;;;7.05;;
51981;SDS011;37998;53.416;6.730;2022-11-06T06:38:52;14.93;;;6.60;;
51981;SDS011;37998;53.416;6.730;2022-11-06T06:41:18;11.40;;;6.90;;
51981;SDS011;37998;53.416;6.730;2022-11-06T06:43:46;15.15;;;7.47;;
51981;SDS011;37998;53.416;6.730;2022-11-06T06:46:12;13.20;;;7.30;;
51981;SDS011;37998;53.416;6.730;2022-11-06T06:48:38;17.67;;;7.20;;
51981;SDS011;37998;53.416;6.730;2022-11-06T06:51:03;11.65;;;6.88;;
51981;SDS011;37998;53.416;6.730;2022-11-06T06:53:30;9.60;;;6.18;;
51981;SDS011;37998;53.416;6.730;2022-11-06T06:55:59;10.73;;;6.55;;
51981;SDS011;37998;53.416;6.730;2022-11-06T06:58:26;9.75;;;5.93;;
51981;SDS011;37998;53.416;6.730;2022-11-06T07:00:53;10.85;;;5.97;;
51981;SDS011;37998;53.416;6.730;2022-11-06T07:03:19;11.77;;;6.10;;
51981;SDS011;37998;53.416;6.730;2022-11-06T07:05:45;9.52;;;6.10;;
51981;SDS011;37998;53.416;6.730;2022-11-06T07:08:11;13.95;;;6.75;;
51981;SDS011;37998;53.416;6.730;2022-11-06T07:10:37;12.38;;;6.07;;
51981;SDS011;37998;53.416;6.730;2022-11-06T07:13:03;11.27;;;6.55;;
51981;SDS011;37998;53.416;6.730;2022-11-06T07:15:30;12.43;;;6.63;;
51981;SDS011;37998;53.416;6.730;2022-11-06T07:18:03;11.45;;;6.05;;
51981;SDS011;37998;53.416;6.730;2022-11-06T07:20:30;9.30;;;6.18;;
51981;SDS011;37998;53.416;6.730;2022-11-06T07:22:56;10.38;;;6.30;;
51981;SDS011;37998;53.416;6.730;2022-11-06T07:25:22;11.50;;;6.43;;
51981;SDS011;37998;53.416;6.730;2022-11-06T07:27:49;9.32;;;5.85;;
51981;SDS011;37998;53.416;6.730;2022-11-06T07:30:14;10.82;;;5.78;;
51981;SDS011;37998;53.416;6.730;2022-11-06T07:32:40;11.25;;;6.15;;
51981;SDS011;37998;53.416;6.730;2022-11-06T07:35:06;10.98;;;5.88;;
51981;SDS011;37998;53.416;6.730;2022-11-06T07:37:32;9.60;;;5.97;;
51981;SDS011;37998;53.416;6.730;2022-11-06T07:39:58;12.13;;;5.97;;
51981;SDS011;37998;53.416;6.730;2022-11-06T07:42:23;9.00;;;5.72;;
51981;SDS011;37998;53.416;6.730;2022-11-06T07:44:49;11.73;;;5.35;;
51981;SDS011;37998;53.416;6.730;2022-11-06T07:47:18;9.02;;;5.68;;
51981;SDS011;37998;53.416;6.730;2022-11-06T07:49:43;9.70;;;5.22;;
51981;SDS011;37998;53.416;6.730;2022-11-06T07:52:09;16.40;;;5.43;;
51981;SDS011;37998;53.416;6.730;2022-11-06T07:54:35;12.40;;;5.20;;
51981;SDS011;37998;53.416;6.730;2022-11-06T07:57:00;10.30;;;5.40;;
51981;SDS011;37998;53.416;6.730;2022-11-06T07:59:26;11.98;;;5.00;;
51981;SDS011;37998;53.416;6.730;2022-11-06T08:01:51;10.98;;;5.63;;
51981;SDS011;37998;53.416;6.730;2022-11-06T08:04:17;9.70;;;5.07;;
51981;SDS011;37998;53.416;6.730;2022-11-06T08:06:43;13.93;;;6.00;;
51981;SDS011;37998;53.416;6.730;2022-11-06T08:09:08;10.85;;;5.32;;
51981;SDS011;37998;53.416;6.730;2022-11-06T08:11:34;11.48;;;4.70;;
51981;SDS011;37998;53.416;6.730;2022-11-06T08:14:00;9.20;;;4.78;;
51981;SDS011;37998;53.416;6.730;2022-11-06T08:16:25;8.20;;;4.43;;
51981;SDS011;37998;53.416;6.730;2022-11-06T08:18:51;12.85;;;4.63;;
51981;SDS011;37998;53.416;6.730;2022-11-06T08:21:17;10.38;;;4.88;;
51981;SDS011;37998;53.416;6.730;2022-11-06T08:23:42;15.60;;;5.70;;
51981;SDS011;37998;53.416;6.730;2022-11-06T08:26:09;9.52;;;4.80;;
51981;SDS011;37998;53.416;6.730;2022-11-06T08:28:35;11.30;;;4.80;;
51981;SDS011;37998;53.416;6.730;2022-11-06T08:31:04;9.90;;;4.95;;
51981;SDS011;37998;53.416;6.730;2022-11-06T08:33:31;10.07;;;4.60;;
51981;SDS011;37998;53.416;6.730;2022-11-06T08:35:59;10.77;;;4.65;;
51981;SDS011;37998;53.416;6.730;2022-11-06T08:38:26;9.57;;;5.07;;
51981;SDS011;37998;53.416;6.730;2022-11-06T08:40:52;9.35;;;4.40;;
51981;SDS011;37998;53.416;6.730;2022-11-06T08:43:17;9.70;;;5.32;;
51981;SDS011;37998;53.416;6.730;2022-11-06T08:45:43;10.23;;;5.18;;
51981;SDS011;37998;53.416;6.730;2022-11-06T08:48:09;10.27;;;4.93;;
51981;SDS011;37998;53.416;6.730;2022-11-06T08:50:35;9.77;;;4.80;;
51981;SDS011;37998;53.416;6.730;2022-11-06T08:53:03;10.63;;;5.20;;
51981;SDS011;37998;53.416;6.730;2022-11-06T08:55:31;8.73;;;4.40;;
51981;SDS011;37998;53.416;6.730;2022-11-06T08:58:02;13.77;;;5.25;;
51981;SDS011;37998;53.416;6.730;2022-11-06T09:00:28;15.82;;;5.07;;
51981;SDS011;37998;53.416;6.730;2022-11-06T09:02:57;10.82;;;4.13;;
51981;SDS011;37998;53.416;6.730;2022-11-06T09:05:24;11.60;;;4.57;;
51981;SDS011;37998;53.416;6.730;2022-11-06T09:07:50;11.75;;;4.50;;
51981;SDS011;37998;53.416;6.730;2022-11-06T09:10:15;10.23;;;4.80;;
51981;SDS011;37998;53.416;6.730;2022-11-06T09:12:41;8.48;;;4.32;;
51981;SDS011;37998;53.416;6.730;2022-11-06T09:15:08;9.52;;;4.18;;
51981;SDS011;37998;53.416;6.730;2022-11-06T09:17:40;8.40;;;3.53;;
51981;SDS011;37998;53.416;6.730;2022-11-06T09:20:07;11.85;;;3.90;;
51981;SDS011;37998;53.416;6.730;2022-11-06T09:22:33;11.23;;;3.67;;
51981;SDS011;37998;53.416;6.730;2022-11-06T09:24:58;7.03;;;3.70;;
51981;SDS011;37998;53.416;6.730;2022-11-06T09:27:24;6.97;;;3.55;;
51981;SDS011;37998;53.416;6.730;2022-11-06T09:29:49;9.38;;;4.10;;
51981;SDS011;37998;53.416;6.730;2022-11-06T09:32:16;10.00;;;3.85;;
51981;SDS011;37998;53.416;6.730;2022-11-06T09:34:42;11.13;;;4.32;;
51981;SDS011;37998;53.416;6.730;2022-11-06T09:37:07;9.15;;;3.63;;
51981;SDS011;37998;53.416;6.730;2022-11-06T09:39:33;7.75;;;3.47;;
51981;SDS011;37998;53.416;6.730;2022-11-06T09:42:00;8.82;;;3.67;;
51981;SDS011;37998;53.416;6.730;2022-11-06T09:44:36;8.63;;;3.88;;
51981;SDS011;37998;53.416;6.730;2022-11-06T09:47:18;11.25;;;3.72;;
51981;SDS011;37998;53.416;6.730;2022-11-06T09:49:51;9.75;;;4.30;;
51981;SDS011;37998;53.416;6.730;2022-11-06T09:52:21;9.98;;;3.95;;
51981;SDS011;37998;53.416;6.730;2022-11-06T09:54:56;7.65;;;3.55;;
51981;SDS011;37998;53.416;6.730;2022-11-06T10:00:13;8.90;;;3.58;;
51981;SDS011;37998;53.416;6.730;2022-11-06T10:07:56;9.48;;;3.35;;
51981;SDS011;37998;53.416;6.730;2022-11-06T10:10:28;7.38;;;3.92;;
51981;SDS011;37998;53.416;6.730;2022-11-06T10:13:16;10.98;;;3.22;;
51981;SDS011;37998;53.416;6.730;2022-11-06T10:16:05;8.43;;;3.67;;
51981;SDS011;37998;53.416;6.730;2022-11-06T10:24:22;7.35;;;3.22;;
51981;SDS011;37998;53.416;6.730;2022-11-06T10:26:57;12.63;;;3.85;;
51981;SDS011;37998;53.416;6.730;2022-11-06T10:34:48;5.95;;;3.03;;
51981;SDS011;37998;53.416;6.730;2022-11-06T10:37:26;7.15;;;3.03;;
51981;SDS011;37998;53.416;6.730;2022-11-06T10:42:22;8.18;;;2.85;;
51981;SDS011;37998;53.416;6.730;2022-11-06T10:45:14;8.55;;;3.00;;
51981;SDS011;37998;53.416;6.730;2022-11-06T10:47:44;10.70;;;3.80;;
51981;SDS011;37998;53.416;6.730;2022-11-06T10:50:16;7.78;;;3.00;;
51981;SDS011;37998;53.416;6.730;2022-11-06T10:58:22;8.43;;;3.75;;
51981;SDS011;37998;53.416;6.730;2022-11-06T11:00:58;5.85;;;3.13;;
51981;SDS011;37998;53.416;6.730;2022-11-06T11:03:30;6.43;;;3.17;;
51981;SDS011;37998;53.416;6.730;2022-11-06T11:06:09;9.55;;;3.50;;
51981;SDS011;37998;53.416;6.730;2022-11-06T11:08:40;9.25;;;3.17;;
51981;SDS011;37998;53.416;6.730;2022-11-06T11:11:22;7.30;;;2.55;;
51981;SDS011;37998;53.416;6.730;2022-11-06T11:13:50;9.93;;;3.28;;
51981;SDS011;37998;53.416;6.730;2022-11-06T11:16:27;8.93;;;2.53;;
51981;SDS011;37998;53.416;6.730;2022-11-06T11:22:16;8.38;;;2.60;;
51981;SDS011;37998;53.416;6.730;2022-11-06T11:27:36;6.60;;;2.80;;
51981;SDS011;37998;53.416;6.730;2022-11-06T11:30:10;9.52;;;2.58;;
51981;SDS011;37998;53.416;6.730;2022-11-06T11:32:50;6.43;;;2.70;;
51981;SDS011;37998;53.416;6.730;2022-11-06T11:35:17;9.32;;;2.40;;
51981;SDS011;37998;53.416;6.730;2022-11-06T11:37:45;8.18;;;2.40;;
51981;SDS011;37998;53.416;6.730;2022-11-06T11:46:04;9.43;;;3.33;;
51981;SDS011;37998;53.416;6.730;2022-11-06T11:48:39;7.38;;;2.75;;
51981;SDS011;37998;53.416;6.730;2022-11-06T11:56:20;8.73;;;2.90;;
51981;SDS011;37998;53.416;6.730;2022-11-06T11:58:50;9.38;;;2.65;;
51981;SDS011;37998;53.416;6.730;2022-11-06T12:01:19;6.07;;;2.80;;
51981;SDS011;37998;53.416;6.730;2022-11-06T12:06:33;5.78;;;2.60;;
51981;SDS011;37998;53.416;6.730;2022-11-06T12:08:58;12.27;;;3.60;;
51981;SDS011;37998;53.416;6.730;2022-11-06T12:11:25;9.07;;;4.00;;
51981;SDS011;37998;53.416;6.730;2022-11-06T12:16:53;6.03;;;2.63;;
51981;SDS011;37998;53.416;6.730;2022-11-06T12:19:27;10.45;;;3.17;;
51981;SDS011;37998;53.416;6.730;2022-11-06T12:21:57;9.10;;;3.17;;
51981;SDS011;37998;53.416;6.730;2022-11-06T12:24:47;11.45;;;3.30;;
51981;SDS011;37998;53.416;6.730;2022-11-06T12:27:37;8.55;;;2.78;;
51981;SDS011;37998;53.416;6.730;2022-11-06T12:32:53;7.95;;;3.30;;
51981;SDS011;37998;53.416;6.730;2022-11-06T12:35:26;7.57;;;2.83;;
51981;SDS011;37998;53.416;6.730;2022-11-06T12:37:59;8.85;;;2.70;;
51981;SDS011;37998;53.416;6.730;2022-11-06T12:40:27;6.28;;;2.72;;
51981;SDS011;37998;53.416;6.730;2022-11-06T12:48:49;8.32;;;2.88;;
51981;SDS011;37998;53.416;6.730;2022-11-06T13:05:50;7.72;;;2.50;;
51981;SDS011;37998;53.416;6.730;2022-11-06T13:11:24;9.88;;;2.80;;
51981;SDS011;37998;53.416;6.730;2022-11-06T13:17:06;7.25;;;2.70;;
51981;SDS011;37998;53.416;6.730;2022-11-06T13:19:48;5.13;;;2.15;;
51981;SDS011;37998;53.416;6.730;2022-11-06T13:22:33;6.97;;;2.10;;
51981;SDS011;37998;53.416;6.730;2022-11-06T13:25:05;8.57;;;2.75;;
51981;SDS011;37998;53.416;6.730;2022-11-06T13:28:18;8.05;;;2.60;;
51981;SDS011;37998;53.416;6.730;2022-11-06T13:30:52;8.23;;;2.47;;
51981;SDS011;37998;53.416;6.730;2022-11-06T13:33:37;8.82;;;2.47;;
51981;SDS011;37998;53.416;6.730;2022-11-06T13:36:15;5.57;;;2.33;;
51981;SDS011;37998;53.416;6.730;2022-11-06T13:41:36;8.50;;;2.42;;
51981;SDS011;37998;53.416;6.730;2022-11-06T13:44:05;3.50;;;2.13;;
51981;SDS011;37998;53.416;6.730;2022-11-06T13:52:22;8.38;;;2.03;;
51981;SDS011;37998;53.416;6.730;2022-11-06T14:00:21;4.50;;;2.10;;
51981;SDS011;37998;53.416;6.730;2022-11-06T14:08:21;10.48;;;2.60;;
51981;SDS011;37998;53.416;6.730;2022-11-06T14:13:25;8.60;;;2.38;;
51981;SDS011;37998;53.416;6.730;2022-11-06T14:16:00;4.72;;;1.83;;
51981;SDS011;37998;53.416;6.730;2022-11-06T14:18:29;7.80;;;3.22;;
51981;SDS011;37998;53.416;6.730;2022-11-06T14:26:55;6.05;;;2.20;;
51981;SDS011;37998;53.416;6.730;2022-11-06T14:32:11;5.72;;;2.60;;
51981;SDS011;37998;53.416;6.730;2022-11-06T14:34:45;6.65;;;2.28;;
51981;SDS011;37998;53.416;6.730;2022-11-06T14:45:21;5.32;;;1.85;;
51981;SDS011;37998;53.416;6.730;2022-11-06T14:55:30;6.72;;;2.13;;
51981;SDS011;37998;53.416;6.730;2022-11-06T14:58:17;5.57;;;2.33;;
51981;SDS011;37998;53.416;6.730;2022-11-06T15:00:53;7.57;;;1.88;;
51981;SDS011;37998;53.416;6.730;2022-11-06T15:03:36;5.07;;;1.98;;
51981;SDS011;37998;53.416;6.730;2022-11-06T15:17:12;6.38;;;1.90;;
51981;SDS011;37998;53.416;6.730;2022-11-06T15:19:16;8.45;;;2.20;;
51981;SDS011;37998;53.416;6.730;2022-11-06T15:21:51;7.55;;;2.28;;
51981;SDS011;37998;53.416;6.730;2022-11-06T15:26:58;5.13;;;2.15;;
51981;SDS011;37998;53.416;6.730;2022-11-06T15:29:30;6.78;;;1.85;;
51981;SDS011;37998;53.416;6.730;2022-11-06T15:32:09;6.55;;;2.10;;
51981;SDS011;37998;53.416;6.730;2022-11-06T15:34:54;4.70;;;2.10;;
51981;SDS011;37998;53.416;6.730;2022-11-06T15:37:25;4.93;;;2.10;;
51981;SDS011;37998;53.416;6.730;2022-11-06T15:39:55;7.88;;;3.60;;
51981;SDS011;37998;53.416;6.730;2022-11-06T15:42:28;7.05;;;2.47;;
51981;SDS011;37998;53.416;6.730;2022-11-06T15:47:40;6.53;;;2.50;;
51981;SDS011;37998;53.416;6.730;2022-11-06T15:50:19;8.18;;;2.42;;
51981;SDS011;37998;53.416;6.730;2022-11-06T15:52:47;4.65;;;2.25;;
51981;SDS011;37998;53.416;6.730;2022-11-06T15:57:39;7.57;;;2.60;;
51981;SDS011;37998;53.416;6.730;2022-11-06T16:00:24;7.15;;;2.95;;
51981;SDS011;37998;53.416;6.730;2022-11-06T16:05:21;7.47;;;3.13;;
51981;SDS011;37998;53.416;6.730;2022-11-06T16:07:47;8.90;;;3.35;;
51981;SDS011;37998;53.416;6.730;2022-11-06T16:10:15;8.40;;;3.05;;
51981;SDS011;37998;53.416;6.730;2022-11-06T16:12:44;10.05;;;3.28;;
51981;SDS011;37998;53.416;6.730;2022-11-06T16:18:07;7.75;;;3.50;;
51981;SDS011;37998;53.416;6.730;2022-11-06T16:23:49;7.43;;;3.25;;
51981;SDS011;37998;53.416;6.730;2022-11-06T16:29:18;8.07;;;3.20;;
51981;SDS011;37998;53.416;6.730;2022-11-06T16:31:46;7.20;;;3.53;;
51981;SDS011;37998;53.416;6.730;2022-11-06T16:34:20;7.22;;;3.20;;
51981;SDS011;37998;53.416;6.730;2022-11-06T16:37:03;7.22;;;3.58;;
51981;SDS011;37998;53.416;6.730;2022-11-06T16:39:47;7.97;;;3.50;;
51981;SDS011;37998;53.416;6.730;2022-11-06T16:42:58;7.20;;;3.35;;
51981;SDS011;37998;53.416;6.730;2022-11-06T16:45:24;8.52;;;3.92;;
51981;SDS011;37998;53.416;6.730;2022-11-06T16:48:22;7.68;;;3.78;;
51981;SDS011;37998;53.416;6.730;2022-11-06T16:50:56;8.80;;;3.65;;
51981;SDS011;37998;53.416;6.730;2022-11-06T16:53:27;5.93;;;3.28;;
51981;SDS011;37998;53.416;6.730;2022-11-06T16:55:56;12.15;;;4.13;;
51981;SDS011;37998;53.416;6.730;2022-11-06T16:58:27;8.32;;;3.28;;
51981;SDS011;37998;53.416;6.730;2022-11-06T17:00:59;8.07;;;4.03;;
51981;SDS011;37998;53.416;6.730;2022-11-06T17:03:27;8.75;;;3.88;;
51981;SDS011;37998;53.416;6.730;2022-11-06T17:05:59;10.90;;;4.23;;
51981;SDS011;37998;53.416;6.730;2022-11-06T17:08:35;8.30;;;3.17;;
51981;SDS011;37998;53.416;6.730;2022-11-06T17:13:44;7.25;;;3.45;;
51981;SDS011;37998;53.416;6.730;2022-11-06T17:16:28;10.65;;;3.83;;
51981;SDS011;37998;53.416;6.730;2022-11-06T17:18:54;7.15;;;3.53;;
51981;SDS011;37998;53.416;6.730;2022-11-06T17:21:21;9.18;;;3.60;;
51981;SDS011;37998;53.416;6.730;2022-11-06T17:23:48;8.50;;;3.42;;
51981;SDS011;37998;53.416;6.730;2022-11-06T17:28:49;7.40;;;2.88;;
51981;SDS011;37998;53.416;6.730;2022-11-06T17:31:15;5.43;;;2.65;;
51981;SDS011;37998;53.416;6.730;2022-11-06T17:33:42;4.15;;;1.75;;
51981;SDS011;37998;53.416;6.730;2022-11-06T17:36:14;2.58;;;1.35;;
51981;SDS011;37998;53.416;6.730;2022-11-06T17:38:52;5.13;;;1.33;;
51981;SDS011;37998;53.416;6.730;2022-11-06T17:41:19;2.78;;;1.42;;
51981;SDS011;37998;53.416;6.730;2022-11-06T17:43:58;2.42;;;1.30;;
51981;SDS011;37998;53.416;6.730;2022-11-06T17:46:28;2.35;;;1.30;;
51981;SDS011;37998;53.416;6.730;2022-11-06T17:48:56;2.60;;;1.10;;
51981;SDS011;37998;53.416;6.730;2022-11-06T17:51:24;3.58;;;1.30;;
51981;SDS011;37998;53.416;6.730;2022-11-06T17:54:09;3.63;;;1.30;;
51981;SDS011;37998;53.416;6.730;2022-11-06T17:56:35;4.22;;;1.33;;
51981;SDS011;37998;53.416;6.730;2022-11-06T17:59:01;2.35;;;1.25;;
51981;SDS011;37998;53.416;6.730;2022-11-06T18:01:27;4.32;;;1.50;;
51981;SDS011;37998;53.416;6.730;2022-11-06T18:03:54;2.50;;;1.35;;
51981;SDS011;37998;53.416;6.730;2022-11-06T18:06:20;5.55;;;1.25;;
51981;SDS011;37998;53.416;6.730;2022-11-06T18:08:46;2.92;;;1.30;;
51981;SDS011;37998;53.416;6.730;2022-11-06T18:11:11;5.88;;;1.58;;
51981;SDS011;37998;53.416;6.730;2022-11-06T18:13:37;3.22;;;1.20;;
51981;SDS011;37998;53.416;6.730;2022-11-06T18:16:03;2.28;;;1.42;;
51981;SDS011;37998;53.416;6.730;2022-11-06T18:18:38;3.08;;;1.80;;
51981;SDS011;37998;53.416;6.730;2022-11-06T18:21:04;4.30;;;1.63;;
51981;SDS011;37998;53.416;6.730;2022-11-06T18:23:30;6.18;;;1.77;;